createdAt,value
2022-11-21T00:01:42.183Z,6.70
2022-11-21T00:04:10.251Z,3.10
2022-11-21T00:06:38.334Z,5.13
2022-11-21T00:09:06.459Z,5.63
2022-11-21T00:11:34.542Z,5.97
2022-11-21T00:14:02.660Z,5.33
2022-11-21T00:16:32.146Z,6.63
2022-11-21T00:19:01.309Z,10.07
2022-11-21T00:21:29.461Z,5.63
2022-11-21T00:23:57.600Z,7.37
2022-11-21T00:26:25.714Z,5.43
2022-11-21T00:28:54.156Z,5.03
2022-11-21T00:31:24.225Z,8.30
2022-11-21T00:33:53.766Z,5.30
2022-11-21T00:36:21.819Z,10.90
2022-11-21T00:38:49.922Z,5.07
2022-11-21T00:41:18.159Z,8.00
2022-11-21T00:43:46.322Z,6.13
2022-11-21T00:46:14.342Z,8.03
2022-11-21T00:48:42.494Z,15.63
2022-11-21T00:51:11.966Z,6.97
2022-11-21T00:53:40.138Z,4.90
2022-11-21T00:56:08.385Z,9.47
2022-11-21T00:58:36.690Z,9.23
2022-11-21T01:01:07.269Z,10.03
2022-11-21T01:03:36.042Z,9.40
2022-11-21T01:06:06.568Z,10.33
2022-11-21T01:08:39.270Z,7.90
2022-11-21T01:11:09.282Z,14.73
2022-11-21T01:13:38.330Z,10.60
2022-11-21T01:16:08.001Z,8.47
2022-11-21T01:18:36.774Z,13.83
2022-11-21T01:21:06.951Z,11.33
2022-11-21T01:23:36.380Z,7.17
2022-11-21T01:26:05.061Z,7.20
2022-11-21T01:28:34.194Z,14.17
2022-11-21T01:31:06.358Z,7.43
2022-11-21T01:33:34.845Z,9.33
2022-11-21T01:36:11.096Z,11.20
2022-11-21T01:38:41.454Z,12.73
2022-11-21T01:41:10.631Z,15.70
2022-11-21T01:43:39.353Z,18.23
2022-11-21T01:46:15.009Z,20.93
2022-11-21T01:48:48.818Z,15.13
2022-11-21T01:51:22.793Z,20.37
2022-11-21T01:53:57.529Z,17.00
2022-11-21T01:56:26.794Z,28.33
2022-11-21T01:58:59.688Z,19.03
2022-11-21T02:01:28.832Z,23.87
2022-11-21T02:03:58.227Z,18.77
2022-11-21T02:06:27.201Z,34.20
2022-11-21T02:08:58.433Z,18.97
2022-11-21T02:11:32.027Z,14.57
2022-11-21T02:14:01.644Z,20.77
2022-11-21T02:16:30.550Z,23.23
2022-11-21T02:18:58.923Z,31.67
2022-11-21T02:21:39.511Z,25.60
2022-11-21T02:24:16.362Z,21.37
2022-11-21T02:26:47.909Z,21.43
2022-11-21T02:29:17.262Z,24.17
2022-11-21T02:31:45.423Z,25.53
2022-11-21T02:34:13.618Z,24.47
2022-11-21T02:36:45.567Z,23.20
2022-11-21T02:39:20.092Z,22.50
2022-11-21T02:41:58.539Z,24.97
2022-11-21T02:44:33.861Z,25.67
2022-11-21T02:47:01.962Z,29.43
2022-11-21T02:49:50.588Z,35.13
2022-11-21T02:52:18.658Z,17.00
2022-11-21T02:54:46.849Z,18.90
2022-11-21T02:57:16.257Z,33.53
2022-11-21T02:59:44.331Z,31.43
2022-11-21T03:02:12.540Z,19.93
2022-11-21T03:04:40.587Z,35.27
2022-11-21T03:07:08.793Z,35.13
2022-11-21T03:09:36.876Z,39.13
2022-11-21T03:12:07.857Z,22.53
2022-11-21T03:14:38.076Z,33.53
2022-11-21T03:17:06.304Z,26.90
2022-11-21T03:19:34.460Z,33.60
2022-11-21T03:22:02.515Z,25.90
2022-11-21T03:24:30.658Z,20.90
2022-11-21T03:26:58.902Z,20.13
2022-11-21T03:29:27.205Z,47.50
2022-11-21T03:31:57.004Z,16.83
2022-11-21T03:34:25.853Z,28.40
2022-11-21T03:36:54.262Z,32.03
2022-11-21T03:39:22.377Z,39.40
2022-11-21T03:41:50.822Z,25.80
2022-11-21T03:44:19.032Z,20.53
2022-11-21T03:46:47.866Z,34.47
2022-11-21T03:49:17.956Z,35.70
2022-11-21T03:51:46.430Z,37.10
2022-11-21T03:54:14.696Z,31.47
2022-11-21T03:56:42.794Z,26.13
2022-11-21T03:59:10.851Z,29.87
2022-11-21T04:01:39.169Z,33.53
2022-11-21T04:04:07.330Z,42.77
2022-11-21T04:06:36.863Z,34.37
2022-11-21T04:09:05.338Z,18.93
2022-11-21T04:11:33.450Z,31.93
2022-11-21T04:14:01.580Z,45.50
2022-11-21T04:16:29.809Z,45.60
2022-11-21T04:18:57.878Z,42.90
2022-11-21T04:21:25.931Z,21.07
2022-11-21T04:23:55.415Z,48.60
2022-11-21T04:26:23.476Z,30.57
2022-11-21T04:28:51.545Z,29.80
2022-11-21T04:31:19.634Z,38.00
2022-11-21T04:33:47.691Z,44.27
2022-11-21T04:36:16.124Z,34.53
2022-11-21T04:38:44.245Z,48.73
2022-11-21T04:41:13.729Z,47.20
2022-11-21T04:43:41.849Z,40.90
2022-11-21T04:46:09.950Z,38.20
2022-11-21T04:48:38.076Z,37.47
2022-11-21T04:51:06.156Z,36.53
2022-11-21T04:53:37.460Z,39.80
2022-11-21T04:56:09.585Z,39.67
2022-11-21T04:58:39.044Z,38.90
2022-11-21T05:01:08.959Z,31.93
2022-11-21T05:03:37.275Z,42.00
2022-11-21T05:06:05.766Z,55.73
2022-11-21T05:08:33.864Z,23.13
2022-11-21T05:11:19.317Z,32.40
2022-11-21T05:13:48.762Z,44.33
2022-11-21T05:16:16.926Z,28.27
2022-11-21T05:18:46.056Z,56.33
2022-11-21T05:21:14.265Z,38.70
2022-11-21T05:23:42.621Z,43.80
2022-11-21T05:26:10.843Z,38.67
2022-11-21T05:28:38.998Z,42.07
2022-11-21T05:31:08.569Z,38.90
2022-11-21T05:33:36.662Z,40.37
2022-11-21T05:36:05.550Z,57.20
2022-11-21T05:38:33.818Z,47.77
2022-11-21T05:41:02.055Z,36.37
2022-11-21T05:43:49.086Z,49.93
2022-11-21T05:46:20.826Z,42.23
2022-11-21T05:48:50.326Z,40.60
2022-11-21T05:51:19.501Z,45.23
2022-11-21T05:53:48.645Z,53.17
2022-11-21T05:56:19.172Z,38.33
2022-11-21T05:58:47.814Z,45.53
2022-11-21T06:01:36.661Z,36.67
2022-11-21T06:04:05.333Z,34.67
2022-11-21T06:06:33.520Z,26.93
2022-11-21T06:09:02.241Z,45.60
2022-11-21T06:11:30.573Z,27.67
2022-11-21T06:13:58.682Z,16.20
2022-11-21T06:16:26.792Z,30.47
2022-11-21T06:18:58.441Z,22.83
2022-11-21T06:21:30.047Z,41.23
2022-11-21T06:23:59.623Z,31.33
2022-11-21T06:26:29.108Z,23.70
2022-11-21T06:28:57.567Z,25.23
2022-11-21T06:31:27.717Z,34.03
2022-11-21T06:33:56.806Z,42.10
2022-11-21T06:36:25.852Z,26.70
2022-11-21T06:38:56.848Z,20.63
2022-11-21T06:41:27.023Z,27.53
2022-11-21T06:43:55.239Z,28.73
2022-11-21T06:46:23.311Z,21.40
2022-11-21T06:48:52.566Z,17.17
2022-11-21T06:51:22.309Z,12.07
2022-11-21T06:53:56.742Z,22.70
2022-11-21T06:56:25.879Z,23.07
2022-11-21T06:58:54.315Z,23.40
2022-11-21T07:01:22.925Z,33.70
2022-11-21T07:03:51.242Z,20.23
2022-11-21T07:06:19.437Z,13.03
2022-11-21T07:08:52.429Z,21.13
2022-11-21T07:11:30.705Z,21.40
2022-11-21T07:13:57.828Z,20.63
2022-11-21T07:16:26.449Z,35.20
2022-11-21T07:18:54.929Z,24.43
2022-11-21T07:21:23.064Z,32.17
2022-11-21T07:23:51.165Z,48.17
2022-11-21T07:26:19.324Z,36.10
2022-11-21T07:28:49.147Z,24.10
2022-11-21T07:31:17.291Z,15.60
2022-11-21T07:33:46.858Z,25.80
2022-11-21T07:36:15.530Z,28.67
2022-11-21T07:38:43.695Z,29.30
2022-11-21T07:41:12.259Z,23.57
2022-11-21T07:43:40.373Z,22.50
2022-11-21T07:46:10.165Z,21.57
2022-11-21T07:48:38.368Z,19.50
2022-11-21T07:51:07.295Z,33.43
2022-11-21T07:53:35.723Z,14.97
2022-11-21T07:56:04.957Z,21.47
2022-11-21T07:58:33.279Z,22.33
2022-11-21T08:01:04.704Z,19.93
2022-11-21T08:03:34.570Z,35.17
2022-11-21T08:06:03.920Z,33.83
2022-11-21T08:08:32.777Z,26.43
2022-11-21T08:11:05.984Z,22.17
2022-11-21T08:13:34.902Z,33.03
2022-11-21T08:16:04.921Z,24.97
2022-11-21T08:18:34.657Z,19.17
2022-11-21T08:21:03.765Z,16.20
2022-11-21T08:23:32.115Z,17.27
2022-11-21T08:26:00.427Z,10.33
2022-11-21T08:28:29.014Z,9.80
2022-11-21T08:30:57.101Z,19.73
2022-11-21T08:33:25.223Z,17.90
2022-11-21T08:35:54.667Z,21.87
2022-11-21T08:38:22.828Z,14.47
2022-11-21T08:41:16.234Z,17.87
2022-11-21T08:43:46.099Z,23.93
2022-11-21T08:46:14.254Z,18.47
2022-11-21T08:48:42.378Z,28.00
2022-11-21T08:51:11.986Z,12.33
2022-11-21T08:53:40.076Z,17.67
2022-11-21T08:56:08.192Z,18.70
2022-11-21T08:58:36.347Z,14.33
2022-11-21T09:01:04.428Z,21.77
2022-11-21T09:03:32.902Z,12.53
2022-11-21T09:06:01.413Z,18.50
2022-11-21T09:08:31.489Z,18.53
2022-11-21T09:10:59.778Z,27.47
2022-11-21T09:13:28.609Z,14.60
2022-11-21T09:16:20.100Z,18.50
2022-11-21T09:18:48.769Z,13.93
2022-11-21T09:21:17.192Z,30.57
2022-11-21T09:23:47.153Z,18.60
2022-11-21T09:26:15.391Z,17.83
2022-11-21T09:28:43.446Z,22.17
2022-11-21T09:31:11.584Z,27.50
2022-11-21T09:33:39.729Z,30.20
2022-11-21T09:36:07.824Z,27.70
2022-11-21T09:38:36.044Z,31.10
2022-11-21T09:41:44.641Z,25.70
2022-11-21T09:44:22.253Z,24.03
2022-11-21T09:46:56.599Z,27.07
2022-11-21T09:49:27.208Z,17.67
2022-11-21T09:51:58.447Z,25.30
2022-11-21T09:54:32.771Z,30.57
2022-11-21T09:57:02.796Z,13.43
2022-11-21T09:59:35.404Z,21.77
2022-11-21T10:02:04.876Z,27.50
2022-11-21T10:04:33.027Z,26.83
2022-11-21T10:07:05.941Z,20.43
2022-11-21T10:09:45.614Z,16.67
2022-11-21T10:12:38.765Z,23.10
2022-11-21T10:15:25.388Z,24.87
2022-11-21T10:18:09.221Z,22.03
2022-11-21T10:20:50.900Z,29.77
2022-11-21T10:23:38.234Z,40.53
2022-11-21T10:26:18.207Z,39.80
2022-11-21T10:28:53.518Z,27.90
2022-11-21T10:31:23.310Z,23.70
2022-11-21T10:33:54.398Z,42.37
2022-11-21T10:36:28.321Z,36.37
2022-11-21T10:39:02.345Z,32.50
2022-11-21T10:41:41.873Z,42.03
2022-11-21T10:44:40.290Z,20.80
2022-11-21T10:47:16.942Z,33.27
2022-11-21T10:49:48.283Z,29.33
2022-11-21T10:52:21.748Z,32.23
2022-11-21T10:55:11.374Z,37.23
2022-11-21T10:57:46.797Z,38.20
2022-11-21T11:00:22.976Z,33.63
2022-11-21T11:03:05.151Z,25.63
2022-11-21T11:05:34.419Z,23.60
2022-11-21T11:08:06.197Z,24.63
2022-11-21T11:10:36.644Z,22.53
2022-11-21T11:13:47.250Z,37.23
2022-11-21T11:16:19.681Z,25.67
2022-11-21T11:18:52.219Z,28.43
2022-11-21T11:21:22.412Z,24.33
2022-11-21T11:23:51.365Z,37.20
2022-11-21T11:26:28.791Z,39.83
2022-11-21T11:29:10.438Z,33.90
2022-11-21T11:31:46.158Z,31.40
2022-11-21T11:34:16.001Z,30.03
2022-11-21T11:37:04.133Z,27.73
2022-11-21T11:39:39.892Z,41.03
2022-11-21T11:42:59.178Z,53.90
2022-11-21T11:46:11.662Z,45.10
2022-11-21T11:49:03.690Z,22.93
2022-11-21T11:51:36.254Z,14.07
2022-11-21T11:54:10.088Z,22.77
2022-11-21T11:56:38.777Z,14.97
2022-11-21T11:59:17.605Z,28.70
2022-11-21T12:01:52.775Z,24.73
2022-11-21T12:04:23.917Z,23.47
2022-11-21T12:09:51.621Z,24.23
2022-11-21T12:12:29.778Z,23.73
2022-11-21T12:15:29.609Z,21.93
2022-11-21T12:18:17.415Z,27.60
2022-11-21T12:20:57.086Z,24.50
2022-11-21T12:23:28.978Z,51.00
2022-11-21T12:26:15.262Z,34.70
2022-11-21T12:28:55.684Z,40.20
2022-11-21T12:31:28.815Z,25.10
2022-11-21T12:34:05.695Z,24.03
2022-11-21T12:36:41.987Z,32.70
2022-11-21T12:39:57.983Z,35.20
2022-11-21T12:42:50.700Z,29.30
2022-11-21T12:45:29.087Z,20.63
2022-11-21T12:48:41.194Z,14.70
2022-11-21T12:52:03.761Z,14.13
2022-11-21T12:54:53.757Z,13.17
2022-11-21T12:57:28.560Z,8.07
2022-11-21T13:00:05.488Z,11.13
2022-11-21T13:02:50.092Z,9.67
2022-11-21T13:05:25.400Z,9.40
2022-11-21T13:08:04.557Z,13.27
2022-11-21T13:10:34.152Z,9.37
2022-11-21T13:13:09.230Z,9.63
2022-11-21T13:15:44.889Z,7.17
2022-11-21T13:18:20.477Z,5.73
2022-11-21T13:20:50.219Z,4.90
2022-11-21T13:23:39.813Z,3.67
2022-11-21T13:26:45.295Z,5.37
2022-11-21T13:29:14.788Z,5.13
2022-11-21T13:31:43.545Z,5.20
2022-11-21T13:34:37.563Z,4.60
2022-11-21T13:37:06.455Z,4.47
2022-11-21T13:39:39.592Z,8.27
2022-11-21T13:42:27.204Z,5.60
2022-11-21T13:44:55.849Z,4.23
2022-11-21T13:48:00.451Z,6.47
2022-11-21T13:51:00.559Z,5.13
2022-11-21T13:54:04.006Z,4.20
2022-11-21T13:56:38.920Z,3.73
2022-11-21T13:59:21.062Z,4.10
2022-11-21T14:02:05.279Z,4.00
2022-11-21T14:05:08.007Z,3.23
2022-11-21T14:07:38.096Z,2.43
2022-11-21T14:10:20.524Z,2.80
2022-11-21T14:12:52.013Z,2.40
2022-11-21T14:15:28.605Z,2.97
2022-11-21T14:17:59.313Z,2.93
2022-11-21T14:20:30.628Z,2.77
2022-11-21T14:23:03.444Z,2.83
2022-11-21T14:25:38.053Z,2.70
2022-11-21T14:28:11.425Z,3.40
2022-11-21T14:30:41.233Z,3.87
2022-11-21T14:33:26.480Z,5.93
2022-11-21T14:35:59.319Z,2.80
2022-11-21T14:38:28.755Z,4.50
2022-11-21T14:41:32.172Z,3.73
2022-11-21T14:44:19.336Z,3.50
2022-11-21T14:46:48.231Z,3.53
2022-11-21T14:49:22.751Z,4.53
2022-11-21T14:51:52.843Z,3.67
2022-11-21T14:54:23.237Z,3.20
2022-11-21T14:56:58.743Z,3.90
2022-11-21T14:59:32.113Z,5.00
2022-11-21T15:02:03.984Z,4.83
2022-11-21T15:04:34.909Z,8.37
2022-11-21T15:07:03.623Z,4.20
2022-11-21T15:12:28.921Z,10.20
2022-11-21T15:15:01.770Z,5.03
2022-11-21T15:17:30.770Z,5.30
2022-11-21T15:20:11.608Z,3.13
2022-11-21T15:22:42.905Z,3.00
2022-11-21T15:25:18.336Z,3.60
2022-11-21T15:27:47.306Z,5.33
2022-11-21T15:30:29.760Z,11.93
2022-11-21T15:33:11.646Z,3.40
2022-11-21T15:35:48.815Z,2.73
2022-11-21T15:38:26.479Z,4.60
2022-11-21T15:41:03.242Z,2.90
2022-11-21T15:43:39.430Z,3.70
2022-11-21T15:46:18.989Z,2.93
2022-11-21T15:48:48.954Z,6.40
2022-11-21T15:51:20.497Z,3.53
2022-11-21T15:54:00.263Z,2.97
2022-11-21T15:56:28.802Z,2.37
2022-11-21T15:58:57.071Z,3.87
2022-11-21T16:01:29.850Z,3.80
2022-11-21T16:03:59.504Z,5.07
2022-11-21T16:06:27.725Z,2.87
2022-11-21T16:08:55.872Z,2.23
2022-11-21T16:11:26.140Z,2.30
2022-11-21T16:13:55.931Z,2.47
2022-11-21T16:16:27.949Z,3.87
2022-11-21T16:18:57.517Z,6.17
2022-11-21T16:21:26.486Z,6.17
2022-11-21T16:23:55.841Z,10.47
2022-11-21T16:26:27.972Z,5.53
2022-11-21T16:28:56.294Z,4.93
2022-11-21T16:31:27.071Z,4.97
2022-11-21T16:33:55.724Z,6.13
2022-11-21T16:36:25.562Z,7.60
2022-11-21T16:38:53.940Z,5.60
2022-11-21T16:41:24.735Z,6.07
2022-11-21T16:44:00.611Z,7.63
2022-11-21T16:46:30.061Z,5.13
2022-11-21T16:49:03.129Z,5.50
2022-11-21T16:51:31.764Z,4.97
2022-11-21T16:54:04.379Z,6.03
2022-11-21T16:56:36.601Z,7.43
2022-11-21T16:59:04.777Z,4.63
2022-11-21T17:01:34.446Z,4.53
2022-11-21T17:04:02.600Z,3.43
2022-11-21T17:06:32.273Z,3.57
2022-11-21T17:09:02.133Z,2.13
2022-11-21T17:11:32.255Z,4.33
2022-11-21T17:14:02.578Z,2.63
2022-11-21T17:16:31.102Z,4.17
2022-11-21T17:19:02.505Z,3.40
2022-11-21T17:21:32.135Z,3.07
2022-11-21T17:24:00.490Z,3.33
2022-11-21T17:26:29.885Z,2.47
2022-11-21T17:28:59.309Z,2.03
2022-11-21T17:31:28.059Z,2.27
2022-11-21T17:33:57.879Z,2.20
2022-11-21T17:36:30.067Z,2.20
2022-11-21T17:38:58.298Z,2.27
2022-11-21T17:41:26.982Z,2.30
2022-11-21T17:43:56.279Z,3.03
2022-11-21T17:46:25.576Z,2.73
2022-11-21T17:48:58.072Z,4.83
2022-11-21T17:51:30.101Z,3.40
2022-11-21T17:53:59.550Z,3.77
2022-11-21T17:56:29.488Z,3.50
2022-11-21T17:58:57.912Z,3.20
2022-11-21T18:01:26.728Z,7.30
2022-11-21T18:03:57.620Z,3.70
2022-11-21T18:06:28.397Z,3.00
2022-11-21T18:08:57.668Z,2.73
2022-11-21T18:11:34.437Z,3.33
2022-11-21T18:14:06.539Z,3.40
2022-11-21T18:16:35.239Z,3.80
2022-11-21T18:19:03.376Z,3.77
2022-11-21T18:21:35.518Z,4.70
2022-11-21T18:24:03.968Z,4.83
2022-11-21T18:26:33.519Z,3.73
2022-11-21T18:31:53.149Z,10.10
2022-11-21T18:34:21.531Z,2.70
2022-11-21T18:36:51.071Z,2.30
2022-11-21T18:39:19.159Z,3.17
2022-11-21T18:41:47.378Z,2.67
2022-11-21T18:44:21.264Z,2.67
2022-11-21T18:46:49.982Z,2.40
2022-11-21T18:49:18.314Z,2.40
2022-11-21T18:51:46.487Z,2.40
2022-11-21T18:54:16.451Z,2.93
2022-11-21T18:56:44.544Z,3.17
2022-11-21T18:59:12.809Z,2.70
2022-11-21T19:01:41.060Z,2.93
2022-11-21T19:04:09.532Z,3.03
2022-11-21T19:06:37.652Z,2.80
2022-11-21T19:09:06.100Z,2.73
2022-11-21T19:11:35.692Z,3.53
2022-11-21T19:14:04.005Z,4.10
2022-11-21T19:16:34.391Z,3.27
2022-11-21T19:19:33.044Z,2.60
2022-11-21T19:21:51.655Z,3.47
2022-11-21T19:24:19.891Z,3.47
2022-11-21T19:26:50.716Z,3.50
2022-11-21T19:29:19.582Z,3.50
2022-11-21T19:31:47.887Z,2.80
2022-11-21T19:34:16.466Z,2.87
2022-11-21T19:36:45.401Z,3.00
2022-11-21T19:39:13.978Z,3.07
2022-11-21T19:41:42.108Z,2.90
2022-11-21T19:44:12.268Z,2.97
2022-11-21T19:46:41.201Z,2.50
2022-11-21T19:49:11.405Z,3.30
2022-11-21T19:51:41.168Z,2.70
2022-11-21T19:54:12.152Z,10.70
2022-11-21T19:56:40.761Z,2.80
2022-11-21T19:59:11.497Z,2.27
2022-11-21T20:01:41.411Z,2.30
2022-11-21T20:04:09.691Z,2.70
2022-11-21T20:06:41.513Z,2.33
2022-11-21T20:09:11.437Z,2.00
2022-11-21T20:11:41.086Z,1.90
2022-11-21T20:14:10.128Z,1.80
2022-11-21T20:16:41.313Z,1.87
2022-11-21T20:19:11.929Z,2.10
2022-11-21T20:21:40.382Z,1.80
2022-11-21T20:24:09.141Z,2.00
2022-11-21T20:26:38.065Z,1.50
2022-11-21T20:29:07.027Z,1.90
2022-11-21T20:31:37.952Z,2.00
2022-11-21T20:34:09.802Z,2.10
2022-11-21T20:36:37.858Z,2.17
2022-11-21T20:39:08.104Z,2.00
2022-11-21T20:41:37.761Z,2.00
2022-11-21T20:45:07.235Z,1.83
2022-11-21T20:46:56.092Z,1.90
2022-11-21T20:49:25.734Z,3.30
2022-11-21T20:54:41.967Z,2.63
2022-11-21T20:57:14.944Z,2.87
2022-11-21T20:59:43.863Z,3.40
2022-11-21T21:02:14.393Z,4.50
2022-11-21T21:04:44.106Z,7.20
2022-11-21T21:07:12.368Z,3.27
2022-11-21T21:09:40.621Z,3.67
2022-11-21T21:12:09.013Z,3.80
2022-11-21T21:14:37.119Z,3.17
2022-11-21T21:17:05.223Z,3.47
2022-11-21T21:19:33.417Z,3.37
2022-11-21T21:22:04.979Z,3.97
2022-11-21T21:24:33.216Z,4.27
2022-11-21T21:27:01.350Z,3.10
2022-11-21T21:29:29.659Z,3.50
2022-11-21T21:31:58.059Z,4.53
2022-11-21T21:34:26.174Z,3.47
2022-11-21T21:36:54.239Z,3.30
2022-11-21T21:39:23.718Z,3.23
2022-11-21T21:41:51.857Z,3.97
2022-11-21T21:44:20.122Z,3.67
2022-11-21T21:46:48.321Z,3.10
2022-11-21T21:49:16.484Z,2.80
2022-11-21T21:51:44.661Z,3.20
2022-11-21T21:54:20.301Z,2.90
2022-11-21T21:56:50.834Z,3.80
2022-11-21T21:59:19.887Z,2.90
2022-11-21T22:01:48.193Z,4.03
2022-11-21T22:04:16.322Z,4.33
2022-11-21T22:06:44.465Z,2.40
2022-11-21T22:09:12.669Z,2.40
2022-11-21T22:11:40.820Z,2.83
2022-11-21T22:14:13.954Z,2.83
2022-11-21T22:16:42.844Z,2.60
2022-11-21T22:19:11.141Z,2.93
2022-11-21T22:21:39.754Z,3.17
2022-11-21T22:24:29.226Z,2.70
2022-11-21T22:26:57.387Z,2.80
2022-11-21T22:29:26.941Z,2.80
2022-11-21T22:31:55.369Z,2.60
2022-11-21T22:34:23.601Z,3.40
2022-11-21T22:36:51.737Z,3.27
2022-11-21T22:39:20.333Z,3.20
2022-11-21T22:41:48.485Z,3.50
2022-11-21T22:44:16.652Z,2.80
2022-11-21T22:46:46.116Z,3.73
2022-11-21T22:49:14.478Z,3.63
2022-11-21T22:51:42.860Z,3.63
2022-11-21T22:54:10.987Z,4.30
2022-11-21T22:56:39.261Z,4.20
2022-11-21T22:59:07.573Z,4.00
2022-11-21T23:01:35.784Z,4.20
2022-11-21T23:04:05.634Z,4.80
2022-11-21T23:06:33.858Z,4.67
2022-11-21T23:09:01.935Z,8.93
2022-11-21T23:11:35.013Z,4.50
2022-11-21T23:14:07.953Z,5.17
2022-11-21T23:16:36.110Z,6.73
2022-11-21T23:19:05.593Z,5.10
2022-11-21T23:21:33.703Z,5.43
2022-11-21T23:24:01.917Z,5.40
2022-11-21T23:26:30.033Z,6.67
2022-11-21T23:28:58.959Z,5.67
2022-11-21T23:31:29.433Z,6.10
2022-11-21T23:33:57.521Z,5.33
2022-11-21T23:36:27.050Z,7.07
2022-11-21T23:38:55.541Z,7.33
2022-11-21T23:41:24.011Z,8.53
2022-11-21T23:43:53.242Z,7.73
2022-11-21T23:46:21.372Z,7.70
2022-11-21T23:48:49.489Z,8.37
2022-11-21T23:51:17.632Z,8.27
2022-11-21T23:53:47.194Z,7.00
2022-11-21T23:56:15.268Z,13.37
2022-11-21T23:58:43.356Z,10.10
